Time;durP1;ratioP1;P1;durP2;ratioP2;P2;SDS_P1;SDS_P2;PMS_P1;PMS_P2;Temp;Humidity;BMP_temperature;BMP_pressure;BME280_temperature;BME280_humidity;BME280_pressure;Samples;Min_cycle;Max_cycle;Signal;HPM_P1;HPM_P2
2022/08/30 00:01:32;;;;;;;;;;;;;;;;;;5036750;28;19917;-90
2022/08/30 00:03:58;;;;;;;;;;;;;;;;;;5036577;28;19917;-90
2022/08/30 00:06:24;;;;;;;;;;;;;;;;;;5018697;28;20058;-90
2022/08/30 00:08:49;;;;;;;;;;;;;;;;;;5018692;28;19921;-89
2022/08/30 00:11:18;;;;;;;;;;;;;;;;;;5018612;28;19917;-89
2022/08/30 00:13:44;;;;;;;;;;;;;;;;;;5018679;28;20353;-90
2022/08/30 00:16:11;;;;;;;;;;;;;;;;;;5036373;28;20004;-91
2022/08/30 00:18:37;;;;;;;;;;;;;;;;;;5018860;28;20012;-89
2022/08/30 00:21:02;;;;;;;;;;;;;;;;;;5036096;28;19959;-90
2022/08/30 00:23:28;;;;;;;;;;;;;;;;;;5018444;28;19918;-89
2022/08/30 00:25:53;;;;;;;;;;;;;;;;;;5017997;28;19924;-90
2022/08/30 00:28:19;;;;;;;;;;;;;;;;;;5018327;28;19917;-89
2022/08/30 00:30:44;;;;;;;;;;;;;;;;;;5018409;28;19963;-90
2022/08/30 00:33:10;;;;;;;;;;;;;;;;;;5040638;28;20051;-89
2022/08/30 00:35:37;;;;;;;;;;;;;;;;;;5035896;28;19917;-88
2022/08/30 00:38:03;;;;;;;;;;;;;;;;;;5035965;28;20364;-90
2022/08/30 00:40:29;;;;;;;;;;;;;;;;;;5018152;28;19917;-90
2022/08/30 00:42:56;;;;;;;;;;;;;;;;;;5017878;28;19917;-89
2022/08/30 00:45:24;;;;;;;;;;;;;;;;;;5037563;28;19925;-90
2022/08/30 00:47:50;;;;;;;;;;;;;;;;;;5018093;28;20055;-89
2022/08/30 00:50:17;;;;;;;;;;;;;;;;;;5018642;28;19948;-90
2022/08/30 00:52:44;;;;;;;;;;;;;;;;;;5017891;28;19921;-89
2022/08/30 00:55:13;;;;;;;;;;;;;;;;;;5017780;28;20402;-89
2022/08/30 00:57:39;;;;;;;;;;;;;;;;;;5035774;28;19924;-88
2022/08/30 01:00:05;;;;;;;;;;;;;;;;;;5017977;28;20360;-88
2022/08/30 01:02:32;;;;;;;;;;;;;;;;;;5035404;28;19913;-89
2022/08/30 01:04:58;;;;;;;;;;;;;;;;;;5017658;28;19917;-90
2022/08/30 01:07:25;;;;;;;;;;;;;;;;;;5035173;28;19917;-91
2022/08/30 01:09:51;;;;;;;;;;;;;;;;;;5035383;28;19921;-91
2022/08/30 01:12:16;;;;;;;;;;;;;;;;;;5035302;28;19943;-92
2022/08/30 01:14:41;;;;;;;;;;;;;;;;;;5035075;28;20055;-89
2022/08/30 01:17:08;;;;;;;;;;;;;;;;;;5035389;28;20368;-91
2022/08/30 01:19:47;;;;;;;;;;;;;;;;;;5034991;28;20376;-89
2022/08/30 01:22:24;;;;;;;;;;;;;;;;;;5017539;28;19921;-89
2022/08/30 01:24:51;;;;;;;;;;;;;;;;;;5017524;28;19964;-89
2022/08/30 01:27:17;;;;;;;;;;;;;;;;;;5017208;28;19917;-90
2022/08/30 01:29:43;;;;;;;;;;;;;;;;;;5034940;28;19928;-89
2022/08/30 01:32:19;;;;;;;;;;;;;;;;;;5035096;28;19957;-89
2022/08/30 01:34:47;;;;;;;;;;;;;;;;;;5035167;28;20261;-90
2022/08/30 01:37:33;;;;;;;;;;;;;;;;;;5034499;28;19921;-89
2022/08/30 01:39:59;;;;;;;;;;;;;;;;;;5016635;28;20380;-88
2022/08/30 01:42:24;;;;;;;;;;;;;;;;;;5017366;28;19917;-89
2022/08/30 01:44:50;;;;;;;;;;;;;;;;;;5034648;28;19917;-89
2022/08/30 01:47:17;;;;;;;;;;;;;;;;;;5034563;28;19922;-90
2022/08/30 01:49:43;;;;;;;;;;;;;;;;;;5016758;28;20216;-89
2022/08/30 01:52:09;;;;;;;;;;;;;;;;;;5024637;28;19913;-90
2022/08/30 01:54:36;;;;;;;;;;;;;;;;;;5021330;28;19952;-90
2022/08/30 01:57:01;;;;;;;;;;;;;;;;;;5033853;28;19918;-88
2022/08/30 01:59:27;;;;;;;;;;;;;;;;;;5025720;28;20315;-90
2022/08/30 02:01:53;;;;;;;;;;;;;;;;;;5002193;28;20364;-89
2022/08/30 02:04:18;;;;;;;;;;;;;;;;;;5000568;28;19925;-89
2022/08/30 02:06:44;;;;;;;;;;;;;;;;;;4998254;28;20028;-88
2022/08/30 02:09:11;;;;;;;;;;;;;;;;;;4997203;28;19929;-89
2022/08/30 02:11:37;;;;;;;;;;;;;;;;;;4997253;28;19918;-89
2022/08/30 02:14:03;;;;;;;;;;;;;;;;;;4996765;28;19925;-89
2022/08/30 02:16:28;;;;;;;;;;;;;;;;;;5014605;28;19951;-88
2022/08/30 02:18:55;;;;;;;;;;;;;;;;;;5014434;28;19917;-88
2022/08/30 02:21:21;;;;;;;;;;;;;;;;;;5012712;28;20016;-90
2022/08/30 02:23:47;;;;;;;;;;;;;;;;;;5014471;28;19960;-88
2022/08/30 02:26:13;;;;;;;;;;;;;;;;;;4996995;28;19921;-87
2022/08/30 02:28:39;;;;;;;;;;;;;;;;;;4996971;28;19918;-89
2022/08/30 02:31:04;;;;;;;;;;;;;;;;;;4996520;28;19918;-89
2022/08/30 02:33:30;;;;;;;;;;;;;;;;;;5014305;28;19917;-89
2022/08/30 02:35:56;;;;;;;;;;;;;;;;;;4996637;28;20373;-88
2022/08/30 02:38:22;;;;;;;;;;;;;;;;;;5014267;28;19918;-90
2022/08/30 02:40:48;;;;;;;;;;;;;;;;;;5013931;28;19922;-91
2022/08/30 02:43:13;;;;;;;;;;;;;;;;;;5013396;28;20278;-89
2022/08/30 02:45:39;;;;;;;;;;;;;;;;;;5014896;28;20495;-88
2022/08/30 02:48:04;;;;;;;;;;;;;;;;;;5015259;28;19957;-88
2022/08/30 02:50:30;;;;;;;;;;;;;;;;;;5000883;28;19925;-89
2022/08/30 02:52:56;;;;;;;;;;;;;;;;;;5016852;28;19918;-90
2022/08/30 02:55:21;;;;;;;;;;;;;;;;;;5017963;28;19924;-90
2022/08/30 02:57:47;;;;;;;;;;;;;;;;;;5014339;28;19985;-90
2022/08/30 03:00:14;;;;;;;;;;;;;;;;;;4999403;28;19929;-90
2022/08/30 03:02:39;;;;;;;;;;;;;;;;;;5001122;28;20369;-89
2022/08/30 03:05:06;;;;;;;;;;;;;;;;;;5000881;28;19917;-90
2022/08/30 03:07:32;;;;;;;;;;;;;;;;;;5018415;28;19940;-91
2022/08/30 03:09:58;;;;;;;;;;;;;;;;;;5018435;28;19922;-91
2022/08/30 03:12:24;;;;;;;;;;;;;;;;;;5000197;28;19925;-90
2022/08/30 03:14:49;;;;;;;;;;;;;;;;;;5017559;28;19924;-89
2022/08/30 03:17:15;;;;;;;;;;;;;;;;;;5017582;28;19917;-89
2022/08/30 03:19:41;;;;;;;;;;;;;;;;;;5017555;28;19925;-90
2022/08/30 03:22:06;;;;;;;;;;;;;;;;;;5017378;28;19977;-89
2022/08/30 03:24:32;;;;;;;;;;;;;;;;;;5016229;28;20026;-89
2022/08/30 03:26:58;;;;;;;;;;;;;;;;;;5017379;28;19918;-90
2022/08/30 03:29:23;;;;;;;;;;;;;;;;;;5016326;28;19926;-91
2022/08/30 03:31:49;;;;;;;;;;;;;;;;;;5017761;28;19921;-90
2022/08/30 03:34:14;;;;;;;;;;;;;;;;;;5018861;28;20368;-90
2022/08/30 03:36:42;;;;;;;;;;;;;;;;;;5019431;28;20357;-91
2022/08/30 03:39:08;;;;;;;;;;;;;;;;;;5001477;28;19918;-92
2022/08/30 03:41:34;;;;;;;;;;;;;;;;;;5001482;28;19964;-91
2022/08/30 03:44:00;;;;;;;;;;;;;;;;;;5018281;28;19917;-90
2022/08/30 03:46:25;;;;;;;;;;;;;;;;;;5018164;28;19963;-91
2022/08/30 03:48:51;;;;;;;;;;;;;;;;;;5001123;28;19918;-90
2022/08/30 03:51:17;;;;;;;;;;;;;;;;;;5017416;28;19925;-91
2022/08/30 03:53:43;;;;;;;;;;;;;;;;;;5009856;28;19926;-91
2022/08/30 03:56:09;;;;;;;;;;;;;;;;;;4997824;28;19918;-90
2022/08/30 03:58:36;;;;;;;;;;;;;;;;;;4997654;28;19922;-90
2022/08/30 04:01:01;;;;;;;;;;;;;;;;;;4999732;28;20273;-89
2022/08/30 04:03:27;;;;;;;;;;;;;;;;;;4979744;28;19949;-90
2022/08/30 04:05:53;;;;;;;;;;;;;;;;;;4979557;28;19922;-90
2022/08/30 04:08:19;;;;;;;;;;;;;;;;;;4995656;28;19926;-91
2022/08/30 04:10:44;;;;;;;;;;;;;;;;;;4979540;28;19925;-90
2022/08/30 04:13:10;;;;;;;;;;;;;;;;;;4997040;28;19918;-90
2022/08/30 04:15:35;;;;;;;;;;;;;;;;;;4979468;28;19918;-90
2022/08/30 04:18:01;;;;;;;;;;;;;;;;;;5023976;28;19929;-89
2022/08/30 04:20:26;;;;;;;;;;;;;;;;;;4996801;28;19918;-90
2022/08/30 04:22:51;;;;;;;;;;;;;;;;;;4995328;28;19924;-91
2022/08/30 04:25:17;;;;;;;;;;;;;;;;;;4996565;28;19917;-89
2022/08/30 04:27:44;;;;;;;;;;;;;;;;;;5004902;28;20373;-90
2022/08/30 04:30:11;;;;;;;;;;;;;;;;;;5014764;28;19967;-91
2022/08/30 04:32:38;;;;;;;;;;;;;;;;;;5001029;28;19967;-91
2022/08/30 04:35:04;;;;;;;;;;;;;;;;;;5000539;28;19928;-89
2022/08/30 04:37:30;;;;;;;;;;;;;;;;;;5014814;28;20500;-89
2022/08/30 04:40:01;;;;;;;;;;;;;;;;;;5016060;28;19968;-89
2022/08/30 04:42:30;;;;;;;;;;;;;;;;;;5015999;28;20365;-88
2022/08/30 04:44:56;;;;;;;;;;;;;;;;;;4998358;28;19917;-89
2022/08/30 04:47:21;;;;;;;;;;;;;;;;;;5015770;28;19918;-89
2022/08/30 04:49:46;;;;;;;;;;;;;;;;;;4996442;28;19928;-90
2022/08/30 04:52:12;;;;;;;;;;;;;;;;;;5011641;28;19956;-89
2022/08/30 04:54:39;;;;;;;;;;;;;;;;;;5011165;28;19921;-90
2022/08/30 04:57:05;;;;;;;;;;;;;;;;;;5014081;28;19971;-90
2022/08/30 04:59:32;;;;;;;;;;;;;;;;;;5015848;28;20349;-89
2022/08/30 05:01:57;;;;;;;;;;;;;;;;;;5013599;28;19944;-91
2022/08/30 05:04:23;;;;;;;;;;;;;;;;;;5015632;28;20432;-91
2022/08/30 05:06:49;;;;;;;;;;;;;;;;;;5024876;28;19917;-90
2022/08/30 05:09:14;;;;;;;;;;;;;;;;;;5016534;28;19921;-90
2022/08/30 05:11:42;;;;;;;;;;;;;;;;;;5014463;28;19917;-89
2022/08/30 05:14:08;;;;;;;;;;;;;;;;;;5015755;28;19922;-89
2022/08/30 05:16:34;;;;;;;;;;;;;;;;;;5014597;28;19925;-90
2022/08/30 05:18:59;;;;;;;;;;;;;;;;;;5015249;28;19929;-90
2022/08/30 05:21:25;;;;;;;;;;;;;;;;;;5016579;28;20004;-89
2022/08/30 05:23:55;;;;;;;;;;;;;;;;;;5010909;28;19965;-91
2022/08/30 05:26:22;;;;;;;;;;;;;;;;;;5014173;28;20020;-89
2022/08/30 05:28:48;;;;;;;;;;;;;;;;;;5012435;28;19968;-89
2022/08/30 05:31:15;;;;;;;;;;;;;;;;;;5012074;28;19922;-89
2022/08/30 05:33:40;;;;;;;;;;;;;;;;;;5015783;28;19921;-89
2022/08/30 05:36:06;;;;;;;;;;;;;;;;;;5014266;28;20432;-90
2022/08/30 05:38:32;;;;;;;;;;;;;;;;;;5013499;28;19921;-90
2022/08/30 05:40:57;;;;;;;;;;;;;;;;;;4984456;28;20020;-90
2022/08/30 05:43:23;;;;;;;;;;;;;;;;;;5012354;28;20012;-90
2022/08/30 05:45:56;;;;;;;;;;;;;;;;;;5014263;28;19921;-89
2022/08/30 05:48:22;;;;;;;;;;;;;;;;;;5009729;28;19949;-90
2022/08/30 05:50:47;;;;;;;;;;;;;;;;;;5014935;28;20400;-89
2022/08/30 05:53:13;;;;;;;;;;;;;;;;;;5030154;28;19921;-91
2022/08/30 05:55:39;;;;;;;;;;;;;;;;;;5013775;28;19921;-90
2022/08/30 05:58:05;;;;;;;;;;;;;;;;;;5014999;28;19917;-90
2022/08/30 06:00:30;;;;;;;;;;;;;;;;;;4997354;28;19977;-91
2022/08/30 06:02:56;;;;;;;;;;;;;;;;;;5014864;28;19923;-90
2022/08/30 06:05:21;;;;;;;;;;;;;;;;;;4998177;28;19944;-93
2022/08/30 06:07:48;;;;;;;;;;;;;;;;;;5014988;28;20328;-90
2022/08/30 06:10:13;;;;;;;;;;;;;;;;;;4986247;28;19926;-90
2022/08/30 06:12:39;;;;;;;;;;;;;;;;;;5014358;28;19917;-90
2022/08/30 06:15:05;;;;;;;;;;;;;;;;;;5003068;28;19921;-90
2022/08/30 06:17:30;;;;;;;;;;;;;;;;;;5014892;28;20004;-90
2022/08/30 06:19:55;;;;;;;;;;;;;;;;;;5015085;28;19941;-90
2022/08/30 06:22:21;;;;;;;;;;;;;;;;;;5013349;28;19917;-90
2022/08/30 06:24:46;;;;;;;;;;;;;;;;;;5015029;28;19917;-92
2022/08/30 06:27:12;;;;;;;;;;;;;;;;;;5013723;28;19964;-90
2022/08/30 06:29:37;;;;;;;;;;;;;;;;;;5015051;28;19918;-89
2022/08/30 06:32:03;;;;;;;;;;;;;;;;;;5018291;28;19929;-91
2022/08/30 06:34:28;;;;;;;;;;;;;;;;;;5035114;28;19914;-92
2022/08/30 06:36:54;;;;;;;;;;;;;;;;;;5032955;28;19912;-92
2022/08/30 06:39:19;;;;;;;;;;;;;;;;;;5027825;28;19921;-92
2022/08/30 06:41:45;;;;;;;;;;;;;;;;;;5030078;28;19925;-92
2022/08/30 06:44:10;;;;;;;;;;;;;;;;;;5018902;28;20364;-90
2022/08/30 06:46:37;;;;;;;;;;;;;;;;;;4999486;28;19917;-93
2022/08/30 06:49:03;;;;;;;;;;;;;;;;;;4997837;28;20266;-91
2022/08/30 06:51:33;;;;;;;;;;;;;;;;;;4997550;28;19918;-91
2022/08/30 06:53:59;;;;;;;;;;;;;;;;;;5015299;28;19960;-90
2022/08/30 06:56:25;;;;;;;;;;;;;;;;;;4996828;28;19968;-91
2022/08/30 13:04:53;;;;;;;;;;;;;;;;;;5050940;27;3386717;-90
2022/08/30 13:07:30;;;;;;;;;;;;;;;;;;5153571;27;19972;-93
2022/08/30 13:10:00;;;;;;;;;;;;;;;;;;5134278;27;20324;-92
2022/08/30 13:12:27;;;;;;;;;;;;;;;;;;5134386;27;19923;-92
2022/08/30 13:15:07;;;;;;;;;;;;;;;;;;5133693;27;19984;-93
2022/08/30 13:17:33;;;;;;;;;;;;;;;;;;5122664;27;19919;-92
2022/08/30 13:20:10;;;;;;;;;;;;;;;;;;5122511;27;20263;-91
2022/08/30 13:22:59;;;;;;;;;;;;;;;;;;5150797;27;19929;-90
2022/08/30 13:25:25;;;;;;;;;;;;;;;;;;5132024;27;20370;-93
2022/08/30 13:27:50;;;;;;;;;;;;;;;;;;5150832;27;19968;-91
2022/08/30 13:30:16;;;;;;;;;;;;;;;;;;5151274;27;20286;-93
2022/08/30 13:32:42;;;;;;;;;;;;;;;;;;5133480;27;19919;-92
2022/08/30 13:35:07;;;;;;;;;;;;;;;;;;5129748;27;19962;-92
2022/08/30 13:37:33;;;;;;;;;;;;;;;;;;5151655;27;19922;-93
2022/08/30 13:40:02;;;;;;;;;;;;;;;;;;5132389;27;20442;-92
2022/08/30 13:42:27;;;;;;;;;;;;;;;;;;5129322;27;19997;-92
2022/08/30 13:44:53;;;;;;;;;;;;;;;;;;5151956;27;19916;-94
2022/08/30 13:47:19;;;;;;;;;;;;;;;;;;5152143;27;19998;-94
2022/08/30 13:49:45;;;;;;;;;;;;;;;;;;5152278;27;19920;-93
2022/08/30 13:52:15;;;;;;;;;;;;;;;;;;5133201;27;19968;-91
2022/08/30 13:54:40;;;;;;;;;;;;;;;;;;5133031;27;19926;-93
2022/08/30 13:57:13;;;;;;;;;;;;;;;;;;5151877;27;19916;-91
2022/08/30 13:59:38;;;;;;;;;;;;;;;;;;5132796;27;19920;-94
2022/08/30 14:02:03;;;;;;;;;;;;;;;;;;5151744;27;20297;-93
2022/08/30 14:04:29;;;;;;;;;;;;;;;;;;5132554;27;19919;-94
2022/08/30 14:06:54;;;;;;;;;;;;;;;;;;5132266;27;19916;-95
2022/08/30 14:09:20;;;;;;;;;;;;;;;;;;5151598;27;20303;-91
2022/08/30 14:11:45;;;;;;;;;;;;;;;;;;5132589;27;19934;-91
2022/08/30 14:14:12;;;;;;;;;;;;;;;;;;5149385;27;19916;-92
2022/08/30 14:16:38;;;;;;;;;;;;;;;;;;5137593;27;20282;-92
2022/08/30 14:19:04;;;;;;;;;;;;;;;;;;5137161;27;19926;-94
2022/08/30 14:21:29;;;;;;;;;;;;;;;;;;5137774;27;19919;-94
2022/08/30 14:23:55;;;;;;;;;;;;;;;;;;5118467;27;20331;-92
2022/08/30 14:26:22;;;;;;;;;;;;;;;;;;5119120;27;19915;-93
2022/08/30 14:28:48;;;;;;;;;;;;;;;;;;5137034;27;20323;-91
2022/08/30 14:31:15;;;;;;;;;;;;;;;;;;5137380;27;19919;-92
2022/08/30 14:33:40;;;;;;;;;;;;;;;;;;5118864;27;19915;-93
2022/08/30 14:36:06;;;;;;;;;;;;;;;;;;5136984;27;19922;-92
2022/08/30 14:38:31;;;;;;;;;;;;;;;;;;5137089;27;19915;-92
2022/08/30 14:40:57;;;;;;;;;;;;;;;;;;5115046;27;20451;-92
2022/08/30 14:43:22;;;;;;;;;;;;;;;;;;5115527;27;19958;-91
2022/08/30 14:45:48;;;;;;;;;;;;;;;;;;5134591;27;19920;-91
2022/08/30 14:48:13;;;;;;;;;;;;;;;;;;5115562;27;19923;-92
2022/08/30 14:50:44;;;;;;;;;;;;;;;;;;5227243;22;19947;-91
2022/08/30 14:53:10;;;;;;;;;;;;;;;;;;5038121;28;19959;-92
2022/08/30 14:55:35;;;;;;;;;;;;;;;;;;5056536;28;19917;-91
2022/08/30 14:58:01;;;;;;;;;;;;;;;;;;5056044;28;19920;-90
2022/08/30 15:00:26;;;;;;;;;;;;;;;;;;5040801;28;19928;-91
2022/08/30 15:02:52;;;;;;;;;;;;;;;;;;5040923;28;19925;-92
2022/08/30 15:05:27;;;;;;;;;;;;;;;;;;5063706;22;19925;-93
2022/08/30 15:13:22;;;;;;;;;;;;;;;;;;5048944;28;19940;-91
2022/08/30 15:15:47;;;;;;;;;;;;;;;;;;5044904;28;19924;-92
2022/08/30 15:18:12;;;;;;;;;;;;;;;;;;5043214;28;20509;-91
2022/08/30 15:20:43;;;;;;;;;;;;;;;;;;5045687;28;19921;-93
2022/08/30 15:23:18;;;;;;;;;;;;;;;;;;5053311;28;20372;-92
2022/08/30 15:25:49;;;;;;;;;;;;;;;;;;5041473;28;19921;-91
2022/08/30 15:28:15;;;;;;;;;;;;;;;;;;5041810;28;19913;-92
2022/08/30 15:30:41;;;;;;;;;;;;;;;;;;5040294;28;20433;-94
2022/08/30 15:33:06;;;;;;;;;;;;;;;;;;5040165;28;19928;-92
2022/08/30 15:35:32;;;;;;;;;;;;;;;;;;5043714;28;19916;-91
2022/08/30 15:37:57;;;;;;;;;;;;;;;;;;5049427;28;19916;-94
2022/08/30 15:40:23;;;;;;;;;;;;;;;;;;5050051;28;19916;-92
2022/08/30 15:42:48;;;;;;;;;;;;;;;;;;5038419;28;19986;-91
2022/08/30 15:45:14;;;;;;;;;;;;;;;;;;5038299;28;19920;-92
2022/08/30 15:47:39;;;;;;;;;;;;;;;;;;5049088;28;19928;-91
2022/08/30 15:50:05;;;;;;;;;;;;;;;;;;5039051;28;19979;-92
2022/08/30 15:52:31;;;;;;;;;;;;;;;;;;5050179;28;19917;-94
2022/08/30 15:54:56;;;;;;;;;;;;;;;;;;5042857;28;19925;-93
2022/08/30 15:57:21;;;;;;;;;;;;;;;;;;5041779;28;19928;-93
2022/08/30 15:59:47;;;;;;;;;;;;;;;;;;5052167;28;19913;-94
2022/08/30 16:02:13;;;;;;;;;;;;;;;;;;5056914;28;20287;-93
2022/08/30 16:04:42;;;;;;;;;;;;;;;;;;5053619;28;19923;-93
2022/08/30 16:07:19;;;;;;;;;;;;;;;;;;5035096;28;19956;-92
2022/08/30 16:09:46;;;;;;;;;;;;;;;;;;5041998;28;19927;-93
2022/08/30 16:12:32;;;;;;;;;;;;;;;;;;5043389;28;19921;-93
2022/08/30 16:14:57;;;;;;;;;;;;;;;;;;5056597;28;20019;-93
2022/08/30 16:17:23;;;;;;;;;;;;;;;;;;5058981;28;19956;-92
2022/08/30 16:19:51;;;;;;;;;;;;;;;;;;5050002;28;19940;-94
2022/08/30 16:22:46;;;;;;;;;;;;;;;;;;5051463;28;19917;-93
2022/08/30 16:25:18;;;;;;;;;;;;;;;;;;5042803;28;19916;-92
2022/08/30 16:27:43;;;;;;;;;;;;;;;;;;5052861;28;19916;-94
2022/08/30 16:30:12;;;;;;;;;;;;;;;;;;5040798;28;20394;-91
2022/08/30 16:32:38;;;;;;;;;;;;;;;;;;5040818;28;19978;-91
2022/08/30 16:35:05;;;;;;;;;;;;;;;;;;5046472;28;20006;-92
2022/08/30 16:37:30;;;;;;;;;;;;;;;;;;5028446;28;20414;-91
2022/08/30 16:39:56;;;;;;;;;;;;;;;;;;5040434;28;20075;-92
2022/08/30 16:42:21;;;;;;;;;;;;;;;;;;5043063;28;19904;-92
2022/08/30 16:44:47;;;;;;;;;;;;;;;;;;5057668;28;19959;-92
2022/08/30 16:47:12;;;;;;;;;;;;;;;;;;5050221;28;19909;-93
2022/08/30 16:49:41;;;;;;;;;;;;;;;;;;5036652;28;19921;-92
2022/08/30 16:52:06;;;;;;;;;;;;;;;;;;5041963;28;19929;-91
2022/08/30 16:54:32;;;;;;;;;;;;;;;;;;5039362;28;19921;-92
2022/08/30 16:56:57;;;;;;;;;;;;;;;;;;5037662;28;19921;-92
2022/08/30 16:59:23;;;;;;;;;;;;;;;;;;5042488;28;19950;-92
2022/08/30 17:01:48;;;;;;;;;;;;;;;;;;5039772;28;19921;-93
2022/08/30 17:04:14;;;;;;;;;;;;;;;;;;5043556;28;19931;-93
2022/08/30 17:06:40;;;;;;;;;;;;;;;;;;5052390;28;19917;-92
2022/08/30 17:09:06;;;;;;;;;;;;;;;;;;5052309;28;19928;-93
2022/08/30 17:11:32;;;;;;;;;;;;;;;;;;5044702;28;19927;-93
2022/08/30 17:13:57;;;;;;;;;;;;;;;;;;5047196;28;19967;-91
2022/08/30 17:16:23;;;;;;;;;;;;;;;;;;5044793;28;19917;-92
2022/08/30 17:18:50;;;;;;;;;;;;;;;;;;5057575;28;19916;-92
2022/08/30 17:21:16;;;;;;;;;;;;;;;;;;5058148;28;19935;-93
2022/08/30 17:23:41;;;;;;;;;;;;;;;;;;5059151;28;20394;-92
2022/08/30 17:26:07;;;;;;;;;;;;;;;;;;5061745;28;19929;-92
2022/08/30 17:31:46;;;;;;;;;;;;;;;;;;5113045;22;20012;-92
2022/08/30 17:34:21;;;;;;;;;;;;;;;;;;5066209;28;19963;-93
2022/08/30 17:36:47;;;;;;;;;;;;;;;;;;5055123;28;19921;-91
2022/08/30 17:44:46;;;;;;;;;;;;;;;;;;5175165;22;19924;-92
2022/08/30 17:47:12;;;;;;;;;;;;;;;;;;5084296;28;20408;-92
2022/08/30 17:49:37;;;;;;;;;;;;;;;;;;5088167;28;19924;-93
2022/08/30 17:52:03;;;;;;;;;;;;;;;;;;5085654;28;19970;-91
2022/08/30 17:54:30;;;;;;;;;;;;;;;;;;5095695;28;19920;-91
2022/08/30 17:57:05;;;;;;;;;;;;;;;;;;5086089;28;19923;-94
2022/08/30 17:59:40;;;;;;;;;;;;;;;;;;5084499;28;19916;-93
2022/08/30 18:02:06;;;;;;;;;;;;;;;;;;5097483;28;19917;-92
2022/08/30 18:04:31;;;;;;;;;;;;;;;;;;5096535;28;19927;-91
2022/08/30 18:06:57;;;;;;;;;;;;;;;;;;5099737;28;19916;-93
2022/08/30 18:09:23;;;;;;;;;;;;;;;;;;5087590;28;19923;-94
2022/08/30 18:11:49;;;;;;;;;;;;;;;;;;5096538;28;19938;-92
2022/08/30 18:14:14;;;;;;;;;;;;;;;;;;5084710;28;19916;-94
2022/08/30 18:16:40;;;;;;;;;;;;;;;;;;5065461;28;19942;-95
2022/08/30 18:19:06;;;;;;;;;;;;;;;;;;5089397;28;19924;-93
2022/08/30 18:21:32;;;;;;;;;;;;;;;;;;5086769;28;19927;-94
2022/08/30 18:24:01;;;;;;;;;;;;;;;;;;5100253;28;19920;-94
2022/08/30 18:26:34;;;;;;;;;;;;;;;;;;5083945;28;20019;-93
2022/08/30 18:28:59;;;;;;;;;;;;;;;;;;5077808;28;19920;-93
2022/08/30 18:31:25;;;;;;;;;;;;;;;;;;5081791;28;20287;-93
2022/08/30 18:33:51;;;;;;;;;;;;;;;;;;5079523;28;20303;-92
2022/08/30 18:36:16;;;;;;;;;;;;;;;;;;5080200;28;19920;-92
2022/08/30 18:38:42;;;;;;;;;;;;;;;;;;5078480;28;19920;-93
2022/08/30 18:41:12;;;;;;;;;;;;;;;;;;5080915;28;19923;-93
2022/08/30 18:53:25;;;;;;;;;;;;;;;;;;2195291;22;20186;-92
2022/08/30 18:55:51;;;;;;;;;;;;;;;;;;5046460;28;20363;-93
2022/08/30 18:58:17;;;;;;;;;;;;;;;;;;5045139;28;19929;-94
2022/08/30 19:00:45;;;;;;;;;;;;;;;;;;5047656;28;20019;-92
2022/08/30 19:03:11;;;;;;;;;;;;;;;;;;5047087;28;19917;-93
2022/08/30 19:05:37;;;;;;;;;;;;;;;;;;5049092;28;20011;-93
2022/08/30 19:08:06;;;;;;;;;;;;;;;;;;5073042;28;19923;-93
2022/08/30 19:10:38;;;;;;;;;;;;;;;;;;5054235;28;19900;-94
2022/08/30 19:13:07;;;;;;;;;;;;;;;;;;5054440;28;19924;-94
2022/08/30 19:15:33;;;;;;;;;;;;;;;;;;5024549;28;19927;-94
2022/08/30 19:17:59;;;;;;;;;;;;;;;;;;5020434;28;20008;-94
2022/08/30 19:20:25;;;;;;;;;;;;;;;;;;5018536;28;19921;-92
2022/08/30 19:22:50;;;;;;;;;;;;;;;;;;5020400;28;19924;-94
2022/08/30 19:25:17;;;;;;;;;;;;;;;;;;5027861;28;19944;-94
2022/08/30 19:27:42;;;;;;;;;;;;;;;;;;5036766;28;19921;-95
2022/08/30 19:30:10;;;;;;;;;;;;;;;;;;5052068;28;19928;-93
2022/08/30 19:32:35;;;;;;;;;;;;;;;;;;5035492;28;20365;-94
2022/08/30 19:35:01;;;;;;;;;;;;;;;;;;5051807;28;19970;-94
2022/08/30 19:37:27;;;;;;;;;;;;;;;;;;5046062;28;19927;-94
2022/08/30 19:39:52;;;;;;;;;;;;;;;;;;5028544;28;20003;-94
2022/08/30 19:42:17;;;;;;;;;;;;;;;;;;5041100;28;19916;-91
2022/08/30 19:44:43;;;;;;;;;;;;;;;;;;5049770;28;19972;-90
2022/08/30 19:47:09;;;;;;;;;;;;;;;;;;5049863;28;19920;-91
2022/08/30 19:49:34;;;;;;;;;;;;;;;;;;5050432;28;20423;-92
2022/08/30 19:52:09;;;;;;;;;;;;;;;;;;5049135;28;20031;-93
2022/08/30 19:54:35;;;;;;;;;;;;;;;;;;5038834;28;19925;-92
2022/08/30 19:57:00;;;;;;;;;;;;;;;;;;5057698;28;19921;-92
2022/08/30 19:59:26;;;;;;;;;;;;;;;;;;5057392;28;19916;-92
2022/08/30 20:01:51;;;;;;;;;;;;;;;;;;5055352;28;19967;-93
2022/08/30 20:04:16;;;;;;;;;;;;;;;;;;5041123;28;20359;-90
2022/08/30 20:06:43;;;;;;;;;;;;;;;;;;5066525;28;20061;-91
2022/08/30 20:09:09;;;;;;;;;;;;;;;;;;5051804;28;19960;-94
2022/08/30 20:11:35;;;;;;;;;;;;;;;;;;5041038;28;19924;-93
2022/08/30 20:14:01;;;;;;;;;;;;;;;;;;5053664;28;19923;-94
2022/08/30 20:16:27;;;;;;;;;;;;;;;;;;5053258;28;19960;-93
2022/08/30 20:18:52;;;;;;;;;;;;;;;;;;5054033;28;19917;-95
2022/08/30 20:21:18;;;;;;;;;;;;;;;;;;5052619;28;20333;-93
2022/08/30 20:23:44;;;;;;;;;;;;;;;;;;5053700;28;20444;-92
2022/08/30 20:26:10;;;;;;;;;;;;;;;;;;5053603;28;19963;-92
2022/08/30 20:28:36;;;;;;;;;;;;;;;;;;5035904;28;19924;-92
2022/08/30 20:31:03;;;;;;;;;;;;;;;;;;5036108;28;19916;-94
2022/08/30 20:33:28;;;;;;;;;;;;;;;;;;5054325;28;19916;-93
2022/08/30 20:35:54;;;;;;;;;;;;;;;;;;5053933;28;19920;-92
2022/08/30 20:38:20;;;;;;;;;;;;;;;;;;5059182;28;19917;-95
2022/08/30 20:40:50;;;;;;;;;;;;;;;;;;5061949;28;20281;-94
2022/08/30 20:43:17;;;;;;;;;;;;;;;;;;5035990;28;19921;-92
2022/08/30 20:45:43;;;;;;;;;;;;;;;;;;5037560;28;19924;-94
2022/08/30 20:48:09;;;;;;;;;;;;;;;;;;5036289;28;20287;-93
2022/08/30 20:50:36;;;;;;;;;;;;;;;;;;5054008;28;19917;-92
2022/08/30 20:53:02;;;;;;;;;;;;;;;;;;5035613;28;19923;-92
2022/08/30 20:55:27;;;;;;;;;;;;;;;;;;5053330;28;20368;-93
2022/08/30 20:57:56;;;;;;;;;;;;;;;;;;5065920;28;19947;-95
2022/08/30 21:00:22;;;;;;;;;;;;;;;;;;5053179;28;20002;-94
2022/08/30 21:02:51;;;;;;;;;;;;;;;;;;5071112;28;19917;-93
2022/08/30 21:05:25;;;;;;;;;;;;;;;;;;5070325;28;19917;-93
2022/08/30 21:07:51;;;;;;;;;;;;;;;;;;5034281;28;19974;-91
2022/08/30 21:10:17;;;;;;;;;;;;;;;;;;5026753;28;20023;-94
2022/08/30 21:12:42;;;;;;;;;;;;;;;;;;5026654;28;19981;-93
2022/08/30 21:15:08;;;;;;;;;;;;;;;;;;5066012;28;19980;-93
2022/08/30 21:17:34;;;;;;;;;;;;;;;;;;5050282;28;19909;-93
2022/08/30 21:19:59;;;;;;;;;;;;;;;;;;5080094;28;19917;-94
2022/08/30 21:22:25;;;;;;;;;;;;;;;;;;5079575;28;19917;-93
2022/08/30 21:24:51;;;;;;;;;;;;;;;;;;5058269;28;20264;-91
2022/08/30 21:27:16;;;;;;;;;;;;;;;;;;5077775;28;20456;-92
2022/08/30 21:29:43;;;;;;;;;;;;;;;;;;5060292;28;19955;-93
2022/08/30 21:32:10;;;;;;;;;;;;;;;;;;5061248;28;20711;-93
2022/08/30 21:37:21;;;;;;;;;;;;;;;;;;5046280;28;19916;-92
2022/08/30 21:39:47;;;;;;;;;;;;;;;;;;5059185;28;19920;-94
2022/08/30 21:42:13;;;;;;;;;;;;;;;;;;5077476;28;20294;-93
2022/08/30 21:44:38;;;;;;;;;;;;;;;;;;5077305;28;19916;-94
2022/08/30 21:47:04;;;;;;;;;;;;;;;;;;5059501;28;20043;-94
2022/08/30 21:49:31;;;;;;;;;;;;;;;;;;5077477;28;19916;-94
2022/08/30 21:51:57;;;;;;;;;;;;;;;;;;5077252;28;19916;-94
2022/08/30 21:54:23;;;;;;;;;;;;;;;;;;5060909;28;19927;-94
2022/08/30 21:56:49;;;;;;;;;;;;;;;;;;5076745;28;19977;-93
2022/08/30 21:59:15;;;;;;;;;;;;;;;;;;5059356;28;19924;-94
2022/08/30 22:01:41;;;;;;;;;;;;;;;;;;5065150;28;19925;-92
2022/08/30 22:04:08;;;;;;;;;;;;;;;;;;5059637;28;19921;-93
2022/08/30 22:06:34;;;;;;;;;;;;;;;;;;5062432;28;20387;-93
2022/08/30 22:09:01;;;;;;;;;;;;;;;;;;5077132;28;19932;-93
2022/08/30 22:11:27;;;;;;;;;;;;;;;;;;5052770;22;20029;-92
2022/08/30 22:13:53;;;;;;;;;;;;;;;;;;5035247;28;20401;-93
2022/08/30 22:16:19;;;;;;;;;;;;;;;;;;5034990;28;20020;-92
2022/08/30 22:18:45;;;;;;;;;;;;;;;;;;5036234;28;20012;-93
2022/08/30 22:21:12;;;;;;;;;;;;;;;;;;5036303;28;20367;-93
2022/08/30 22:23:38;;;;;;;;;;;;;;;;;;5036150;28;19983;-93
2022/08/30 22:26:04;;;;;;;;;;;;;;;;;;5036539;28;19917;-94
2022/08/30 22:28:30;;;;;;;;;;;;;;;;;;5019058;28;19913;-93
2022/08/30 22:30:58;;;;;;;;;;;;;;;;;;5034835;28;19917;-94
2022/08/30 22:33:24;;;;;;;;;;;;;;;;;;5035059;28;19917;-93
2022/08/30 22:35:49;;;;;;;;;;;;;;;;;;5035533;28;20283;-94
2022/08/30 22:38:15;;;;;;;;;;;;;;;;;;5035862;28;19924;-93
2022/08/30 22:40:44;;;;;;;;;;;;;;;;;;5035852;28;19921;-94
2022/08/30 22:43:10;;;;;;;;;;;;;;;;;;5034736;28;20391;-93
2022/08/30 22:45:36;;;;;;;;;;;;;;;;;;5018401;28;20008;-94
2022/08/30 22:48:01;;;;;;;;;;;;;;;;;;5035919;28;20442;-94
2022/08/30 22:50:27;;;;;;;;;;;;;;;;;;5035968;28;19917;-93
2022/08/30 22:52:52;;;;;;;;;;;;;;;;;;5034592;28;20003;-93
2022/08/30 22:55:18;;;;;;;;;;;;;;;;;;5035930;28;19921;-94
2022/08/30 22:57:43;;;;;;;;;;;;;;;;;;5035856;28;19921;-92
2022/08/30 23:00:13;;;;;;;;;;;;;;;;;;5037724;28;19924;-95
2022/08/30 23:02:39;;;;;;;;;;;;;;;;;;5036810;28;19920;-95
2022/08/30 23:05:05;;;;;;;;;;;;;;;;;;5036736;28;19921;-93
2022/08/30 23:07:30;;;;;;;;;;;;;;;;;;5034653;28;20327;-92
2022/08/30 23:09:57;;;;;;;;;;;;;;;;;;5035515;28;20391;-94
2022/08/30 23:12:24;;;;;;;;;;;;;;;;;;5035098;28;19944;-92
2022/08/30 23:14:49;;;;;;;;;;;;;;;;;;5034233;28;20357;-94